createdAt,value
2018-10-16T00:01:51.923Z,18.50
2018-10-16T00:06:55.655Z,17.70
2018-10-16T00:12:03.061Z,13.73
2018-10-16T00:17:06.804Z,18.03
2018-10-16T00:22:10.547Z,12.27
2018-10-16T00:27:15.061Z,14.23
2018-10-16T00:32:18.791Z,15.90
2018-10-16T00:37:22.496Z,12.47
2018-10-16T00:42:26.216Z,19.30
2018-10-16T00:47:29.927Z,14.97
2018-10-16T00:52:33.629Z,11.87
2018-10-16T00:57:37.775Z,19.33
2018-10-16T01:02:42.524Z,16.50
2018-10-16T01:07:46.266Z,16.67
2018-10-16T01:12:49.975Z,16.63
2018-10-16T01:17:53.696Z,18.23
2018-10-16T01:22:57.416Z,16.80
2018-10-16T01:28:01.159Z,18.43
2018-10-16T01:33:04.880Z,13.53
2018-10-16T01:38:08.618Z,14.53
2018-10-16T01:43:12.331Z,17.33
2018-10-16T01:48:16.058Z,16.07
2018-10-16T01:53:19.808Z,19.70
2018-10-16T01:58:23.532Z,13.90
2018-10-16T02:03:27.315Z,16.80
2018-10-16T02:08:31.068Z,16.00
2018-10-16T02:13:34.810Z,13.30
2018-10-16T02:18:38.521Z,15.97
2018-10-16T02:23:42.248Z,12.63
2018-10-16T02:28:45.967Z,22.63
2018-10-16T02:33:49.689Z,13.93
2018-10-16T02:38:53.407Z,19.23
2018-10-16T02:43:57.124Z,17.27
2018-10-16T02:49:00.865Z,17.07
2018-10-16T02:54:04.597Z,17.80
2018-10-16T02:59:08.329Z,19.20
2018-10-16T03:04:12.047Z,15.00
2018-10-16T03:09:15.772Z,16.77
2018-10-16T03:14:19.676Z,18.63
2018-10-16T03:19:23.429Z,16.83
2018-10-16T03:24:27.209Z,19.03
2018-10-16T03:29:30.940Z,20.90
2018-10-16T03:34:34.695Z,16.90
2018-10-16T03:39:38.422Z,13.70
2018-10-16T03:44:42.147Z,17.30
2018-10-16T03:49:45.879Z,21.30
2018-10-16T03:54:49.600Z,21.20
2018-10-16T03:59:53.336Z,16.03
2018-10-16T04:04:57.091Z,18.20
2018-10-16T04:10:00.826Z,20.83
2018-10-16T04:15:05.880Z,20.97
2018-10-16T04:20:09.596Z,17.27
2018-10-16T04:25:13.344Z,17.43
2018-10-16T04:30:17.068Z,22.87
2018-10-16T04:35:20.790Z,19.73
2018-10-16T04:40:24.492Z,22.80
2018-10-16T04:45:28.243Z,18.37
2018-10-16T04:50:31.968Z,21.77
2018-10-16T04:55:35.696Z,24.47
2018-10-16T05:00:39.540Z,18.00
2018-10-16T05:05:43.288Z,22.47
2018-10-16T05:10:47.019Z,20.87
2018-10-16T05:15:50.719Z,23.60
2018-10-16T05:20:54.448Z,20.63
2018-10-16T05:25:58.209Z,19.47
2018-10-16T05:31:02.025Z,26.43
2018-10-16T05:36:06.068Z,26.67
2018-10-16T05:41:09.792Z,22.63
2018-10-16T05:46:13.514Z,19.70
2018-10-16T05:51:17.258Z,19.90
2018-10-16T05:56:20.998Z,17.23
2018-10-16T06:01:24.711Z,18.00
2018-10-16T06:06:28.436Z,22.50
2018-10-16T06:11:32.153Z,19.80
2018-10-16T06:16:35.903Z,21.50
2018-10-16T06:21:39.662Z,23.13
2018-10-16T06:26:43.388Z,23.37
2018-10-16T06:31:47.107Z,21.10
2018-10-16T06:36:50.931Z,25.27
2018-10-16T06:41:54.675Z,35.87
2018-10-16T06:46:58.523Z,35.50
2018-10-16T06:52:02.553Z,21.87
2018-10-16T06:57:06.287Z,20.70
2018-10-16T07:02:10.195Z,22.60
2018-10-16T07:07:14.065Z,26.83
2018-10-16T07:12:17.659Z,23.23
2018-10-16T07:17:21.372Z,19.30
2018-10-16T07:22:25.076Z,16.10
2018-10-16T07:27:28.914Z,19.73
2018-10-16T07:32:32.631Z,16.17
2018-10-16T07:37:37.173Z,17.30
2018-10-16T07:42:41.203Z,20.80
2018-10-16T07:47:44.912Z,17.37
2018-10-16T07:52:48.680Z,23.83
2018-10-16T07:57:52.395Z,27.03
2018-10-16T08:02:56.140Z,16.60
2018-10-16T08:07:59.847Z,17.07
2018-10-16T08:13:03.591Z,20.60
2018-10-16T08:18:07.330Z,16.70
2018-10-16T08:23:11.076Z,17.33
2018-10-16T08:28:14.825Z,17.70
2018-10-16T08:33:18.579Z,15.07
2018-10-16T08:39:27.972Z,20.70
2018-10-16T08:45:40.707Z,25.90
2018-10-16T08:50:56.044Z,16.00
2018-10-16T08:55:59.777Z,21.67
2018-10-16T09:01:03.507Z,22.30
2018-10-16T09:06:07.232Z,17.10
2018-10-16T09:11:10.966Z,15.33
2018-10-16T09:16:14.711Z,23.63
2018-10-16T09:21:18.471Z,19.73
2018-10-16T09:26:22.215Z,13.70
2018-10-16T09:31:25.919Z,21.17
2018-10-16T09:36:29.631Z,18.60
2018-10-16T09:41:33.355Z,12.70
2018-10-16T09:46:37.448Z,15.93
2018-10-16T09:51:41.172Z,14.57
2018-10-16T09:56:44.908Z,12.47
2018-10-16T10:01:52.880Z,12.53
2018-10-16T10:06:56.623Z,13.47
2018-10-16T10:12:00.376Z,12.57
2018-10-16T10:17:04.144Z,13.53
2018-10-16T10:22:07.884Z,11.13
2018-10-16T10:27:11.606Z,10.80
2018-10-16T10:32:15.339Z,15.90
2018-10-16T10:37:19.084Z,18.10
2018-10-16T10:42:22.799Z,16.23
2018-10-16T10:47:26.524Z,16.37
2018-10-16T10:52:30.305Z,12.10
2018-10-16T10:57:34.251Z,13.80
2018-10-16T11:02:38.928Z,11.50
2018-10-16T11:07:42.667Z,13.43
2018-10-16T11:12:46.411Z,17.60
2018-10-16T11:17:50.121Z,11.57
2018-10-16T11:22:53.852Z,11.47
2018-10-16T11:27:57.579Z,9.70
2018-10-16T11:33:01.330Z,10.70
2018-10-16T11:38:05.136Z,11.40
2018-10-16T11:43:08.844Z,9.80
2018-10-16T11:48:12.593Z,14.97
2018-10-16T11:53:16.304Z,9.60
2018-10-16T11:58:20.093Z,9.30
2018-10-16T12:03:23.796Z,15.57
2018-10-16T12:08:27.520Z,13.60
2018-10-16T12:13:31.304Z,14.40
2018-10-16T12:18:38.073Z,10.77
2018-10-16T12:23:41.880Z,15.87
2018-10-16T12:28:45.898Z,12.43
2018-10-16T12:33:49.583Z,12.33
2018-10-16T12:38:53.643Z,10.30
2018-10-16T12:43:57.348Z,8.20
2018-10-16T12:49:01.072Z,9.27
2018-10-16T12:54:04.892Z,11.87
2018-10-16T12:59:08.698Z,10.10
2018-10-16T13:04:12.256Z,9.70
2018-10-16T13:09:15.971Z,11.57
2018-10-16T13:14:19.732Z,9.07
2018-10-16T13:19:23.447Z,9.90
2018-10-16T13:24:27.243Z,6.07
2018-10-16T13:29:31.204Z,7.10
2018-10-16T13:34:34.731Z,6.43
2018-10-16T13:39:38.536Z,6.57
2018-10-16T13:44:42.259Z,8.83
2018-10-16T13:49:45.968Z,5.57
2018-10-16T13:54:49.691Z,6.60
2018-10-16T13:59:53.647Z,5.83
2018-10-16T14:04:57.653Z,7.67
2018-10-16T14:10:01.296Z,10.63
2018-10-16T14:15:05.377Z,7.13
2018-10-16T14:20:10.168Z,10.23
2018-10-16T14:25:14.907Z,8.60
2018-10-16T14:30:18.633Z,10.70
2018-10-16T14:35:22.371Z,8.50
2018-10-16T14:40:26.139Z,7.43
2018-10-16T14:45:29.804Z,8.33
2018-10-16T14:50:33.511Z,9.37
2018-10-16T14:55:37.321Z,8.63
2018-10-16T15:00:41.068Z,11.00
2018-10-16T15:05:44.775Z,6.67
2018-10-16T15:10:48.581Z,7.70
2018-10-16T15:15:52.330Z,14.47
2018-10-16T15:20:56.115Z,9.60
2018-10-16T15:25:59.883Z,7.80
2018-10-16T15:31:03.696Z,10.80
2018-10-16T15:36:07.427Z,6.93
2018-10-16T15:41:11.188Z,9.63
2018-10-16T15:46:14.907Z,9.30
2018-10-16T15:51:18.652Z,17.27
2018-10-16T15:56:22.371Z,8.20
2018-10-16T16:01:26.114Z,11.27
2018-10-16T16:06:29.859Z,7.90
2018-10-16T16:11:33.575Z,10.50
2018-10-16T16:16:37.359Z,8.83
2018-10-16T16:21:41.107Z,10.03
2018-10-16T16:26:44.831Z,8.87
2018-10-16T16:31:48.583Z,10.03
2018-10-16T16:36:52.359Z,17.23
2018-10-16T16:41:56.129Z,11.73
2018-10-16T16:46:59.935Z,13.43
2018-10-16T16:52:03.653Z,8.10
2018-10-16T16:57:07.461Z,10.07
2018-10-16T17:02:11.237Z,11.33
2018-10-16T17:07:14.991Z,13.63
2018-10-16T17:12:18.699Z,11.50
2018-10-16T17:17:22.448Z,16.20
2018-10-16T17:22:26.244Z,9.03
2018-10-16T17:27:30.067Z,7.90
2018-10-16T17:32:33.784Z,14.20
2018-10-16T17:37:37.739Z,9.10
2018-10-16T17:42:41.793Z,9.87
2018-10-16T17:47:45.778Z,10.07
2018-10-16T17:52:49.508Z,10.57
2018-10-16T17:57:53.358Z,11.93
2018-10-16T18:02:57.076Z,10.77
2018-10-16T18:08:00.780Z,10.30
2018-10-16T18:13:04.766Z,10.43
2018-10-16T18:18:08.567Z,9.93
2018-10-16T18:23:12.241Z,19.43
2018-10-16T18:28:16.428Z,15.13
2018-10-16T18:33:20.128Z,9.67
2018-10-16T18:38:23.835Z,17.47
2018-10-16T18:43:27.573Z,15.87
2018-10-16T18:48:31.346Z,30.17
2018-10-16T18:53:35.042Z,11.53
2018-10-16T18:58:38.856Z,16.77
2018-10-16T19:03:42.614Z,14.97
2018-10-16T19:08:46.343Z,19.00
2018-10-16T19:13:50.159Z,19.00
2018-10-16T19:18:53.836Z,13.30
2018-10-16T19:23:57.640Z,14.13
2018-10-16T19:29:01.363Z,14.73
2018-10-16T19:34:05.187Z,14.30
2018-10-16T19:39:09.923Z,13.33
2018-10-16T19:44:13.618Z,14.43
2018-10-16T19:49:17.364Z,15.43
2018-10-16T19:54:21.100Z,17.10
2018-10-16T19:59:24.820Z,16.50
2018-10-16T20:04:28.609Z,16.10
2018-10-16T20:09:32.344Z,13.80
2018-10-16T20:14:36.167Z,17.57
2018-10-16T20:19:39.954Z,22.03
2018-10-16T20:24:43.752Z,15.43
2018-10-16T20:29:47.412Z,17.50
2018-10-16T20:34:51.247Z,14.57
2018-10-16T20:39:54.964Z,21.40
2018-10-16T20:44:58.700Z,16.30
2018-10-16T20:50:02.508Z,11.57
2018-10-16T20:55:06.631Z,13.03
2018-10-16T21:00:10.363Z,13.50
2018-10-16T21:05:14.344Z,13.10
2018-10-16T21:10:17.803Z,14.77
2018-10-16T21:15:21.563Z,16.53
2018-10-16T21:20:25.301Z,14.70
2018-10-16T21:25:29.063Z,16.23
2018-10-16T21:30:32.807Z,17.73
2018-10-16T21:35:36.611Z,17.70
2018-10-16T21:40:40.421Z,12.73
2018-10-16T21:45:44.480Z,16.80
2018-10-16T21:50:48.231Z,12.73
2018-10-16T21:55:51.960Z,17.90
2018-10-16T22:01:01.128Z,21.03
2018-10-16T22:06:04.943Z,17.90
2018-10-16T22:11:08.764Z,19.17
2018-10-16T22:16:12.447Z,19.23
2018-10-16T22:21:16.162Z,17.80
2018-10-16T22:26:19.939Z,19.33
2018-10-16T22:31:23.659Z,18.90
2018-10-16T22:36:27.412Z,17.07
2018-10-16T22:41:31.140Z,17.33
2018-10-16T22:46:35.299Z,17.33
2018-10-16T22:51:39.052Z,19.53
2018-10-16T22:56:42.775Z,18.70
2018-10-16T23:01:46.547Z,20.60
2018-10-16T23:06:50.267Z,20.93
2018-10-16T23:11:54.028Z,20.57
2018-10-16T23:16:57.771Z,23.70
2018-10-16T23:22:01.536Z,19.43
2018-10-16T23:27:05.751Z,15.80
2018-10-16T23:32:09.499Z,12.20
2018-10-16T23:37:13.423Z,19.23
2018-10-16T23:42:17.022Z,18.77
2018-10-16T23:47:20.756Z,17.97
2018-10-16T23:52:24.487Z,22.70
2018-10-16T23:57:28.224Z,16.10
